Time;durP1;ratioP1;P1;durP2;ratioP2;P2;SDS_P1;SDS_P2;PMS_P1;PMS_P2;Temp;Humidity;BMP_temperature;BMP_pressure;BME280_temperature;BME280_humidity;BME280_pressure;Samples;Min_cycle;Max_cycle;Signal;HPM_P1;HPM_P2
2022/10/31 00:02:50;;;;;;;23.45;16.35;;;12.60;99.90;;;;;;5038015;28;20224;-84
2022/10/31 00:05:42;;;;;;;23.52;16.15;;;12.50;99.90;;;;;;5048334;28;20236;-83
2022/10/31 00:08:31;;;;;;;22.23;15.88;;;12.50;99.90;;;;;;5058153;28;20300;-83
2022/10/31 00:11:19;;;;;;;23.23;16.02;;;12.50;99.90;;;;;;5058147;28;20228;-83
2022/10/31 00:14:08;;;;;;;22.40;16.30;;;12.50;99.90;;;;;;5046165;28;20225;-84
2022/10/31 00:16:57;;;;;;;28.65;15.68;;;12.60;99.90;;;;;;5044413;28;20223;-83
2022/10/31 00:19:47;;;;;;;21.50;16.50;;;12.50;99.90;;;;;;5035993;28;20292;-83
2022/10/31 00:22:35;;;;;;;26.45;16.45;;;12.50;99.90;;;;;;5059959;28;20227;-84
2022/10/31 00:25:24;;;;;;;26.60;17.63;;;12.40;99.90;;;;;;5051984;28;20217;-84
2022/10/31 00:28:13;;;;;;;26.83;16.13;;;12.40;99.90;;;;;;5041624;28;20228;-84
2022/10/31 00:31:04;;;;;;;22.55;15.98;;;12.50;99.90;;;;;;5031903;28;20228;-83
2022/10/31 00:33:53;;;;;;;22.67;16.52;;;12.40;99.90;;;;;;5046566;28;20229;-84
2022/10/31 00:36:43;;;;;;;24.70;17.20;;;12.30;99.90;;;;;;5057173;28;20595;-82
2022/10/31 00:39:34;;;;;;;26.65;16.65;;;12.30;99.90;;;;;;5029749;28;20358;-82
2022/10/31 00:42:23;;;;;;;24.20;16.15;;;12.30;99.90;;;;;;5035104;28;20246;-82
2022/10/31 00:45:12;;;;;;;27.23;16.92;;;12.30;99.90;;;;;;5054869;28;20243;-83
2022/10/31 00:48:01;;;;;;;26.52;17.05;;;12.20;99.90;;;;;;5057744;28;20251;-82
2022/10/31 00:50:50;;;;;;;24.90;16.73;;;12.20;99.90;;;;;;5026279;28;20240;-79
2022/10/31 00:53:40;;;;;;;25.30;16.63;;;12.30;99.90;;;;;;5050326;28;20232;-81
2022/10/31 00:56:29;;;;;;;23.27;16.20;;;12.30;99.90;;;;;;5055028;28;20225;-82
2022/10/31 00:59:18;;;;;;;23.30;16.90;;;12.20;99.90;;;;;;5029073;28;20216;-81
2022/10/31 01:02:07;;;;;;;24.95;15.57;;;12.20;99.90;;;;;;5044789;28;20339;-80
2022/10/31 01:04:56;;;;;;;23.75;15.85;;;12.30;99.90;;;;;;5041482;28;20217;-81
2022/10/31 01:07:45;;;;;;;21.05;15.52;;;12.30;99.90;;;;;;5037912;28;21048;-79
2022/10/31 01:10:35;;;;;;;21.08;15.45;;;12.30;99.90;;;;;;5045856;28;20651;-80
2022/10/31 01:13:24;;;;;;;22.02;15.07;;;12.20;99.90;;;;;;5051470;28;20228;-80
2022/10/31 01:16:15;;;;;;;23.27;16.25;;;12.10;99.90;;;;;;5020453;28;20649;-81
2022/10/31 01:19:04;;;;;;;21.25;15.43;;;12.10;99.90;;;;;;5044912;28;20243;-80
2022/10/31 01:21:55;;;;;;;21.98;15.52;;;12.10;99.90;;;;;;5034414;28;20252;-80
2022/10/31 01:24:44;;;;;;;24.02;14.50;;;12.10;99.90;;;;;;5040781;28;20659;-81
2022/10/31 01:27:34;;;;;;;20.63;15.05;;;12.00;99.90;;;;;;5057287;28;20217;-80
2022/10/31 01:30:22;;;;;;;21.23;15.52;;;12.00;99.90;;;;;;5066411;28;20227;-81
2022/10/31 01:33:12;;;;;;;25.50;15.80;;;12.00;99.90;;;;;;5061511;28;20619;-81
2022/10/31 01:36:00;;;;;;;22.33;15.88;;;12.00;99.90;;;;;;5036770;28;20398;-82
2022/10/31 01:38:50;;;;;;;22.63;15.25;;;12.00;99.90;;;;;;5036005;28;20223;-82
2022/10/31 01:41:42;;;;;;;23.42;15.55;;;11.90;99.90;;;;;;5046912;28;20217;-82
2022/10/31 01:45:02;;;;;;;23.40;15.20;;;12.00;99.90;;;;;;5032782;28;20228;-81
2022/10/31 01:47:51;;;;;;;24.15;15.63;;;11.90;99.90;;;;;;5003672;28;20250;-82
2022/10/31 01:50:40;;;;;;;22.27;15.88;;;12.00;99.90;;;;;;5030035;28;20248;-84
2022/10/31 01:53:29;;;;;;;22.20;15.88;;;11.90;99.90;;;;;;5038095;28;20696;-82
2022/10/31 01:56:19;;;;;;;23.40;15.40;;;11.90;99.90;;;;;;5038545;28;20747;-83
2022/10/31 01:59:13;;;;;;;24.63;16.30;;;12.00;99.90;;;;;;5029336;28;20240;-83
2022/10/31 02:02:03;;;;;;;23.65;15.63;;;11.90;99.90;;;;;;5032363;28;20222;-81
2022/10/31 02:04:54;;;;;;;22.38;15.40;;;11.80;99.90;;;;;;5033950;28;20568;-82
2022/10/31 02:07:51;;;;;;;21.42;15.85;;;11.90;99.90;;;;;;5030775;28;21052;-81
2022/10/31 02:10:41;;;;;;;26.65;17.83;;;11.90;99.90;;;;;;5036127;28;20228;-81
2022/10/31 02:13:30;;;;;;;25.67;18.92;;;11.90;99.90;;;;;;5045511;28;20228;-82
2022/10/31 02:16:19;;;;;;;29.60;19.25;;;11.80;99.90;;;;;;5032193;28;20649;-84
2022/10/31 02:19:13;;;;;;;28.98;19.73;;;11.90;99.90;;;;;;5035604;28;20221;-83
2022/10/31 02:22:10;;;;;;;29.48;20.30;;;11.80;99.90;;;;;;5061285;28;20227;-81
2022/10/31 02:25:09;;;;;;;29.67;20.30;;;11.80;99.90;;;;;;5044965;28;20250;-82
2022/10/31 02:28:22;;;;;;;29.00;19.70;;;11.70;99.90;;;;;;5037058;28;20287;-82
2022/10/31 02:31:27;;;;;;;27.40;19.33;;;11.60;99.90;;;;;;5042135;28;20221;-79
2022/10/31 02:34:22;;;;;;;27.30;20.02;;;11.50;99.90;;;;;;5037362;28;20228;-79
2022/10/31 02:37:15;;;;;;;29.05;21.73;;;11.40;99.90;;;;;;5041282;28;20216;-80
2022/10/31 02:40:11;;;;;;;31.83;22.05;;;11.50;99.90;;;;;;5040339;28;20228;-81
2022/10/31 02:43:24;;;;;;;29.60;21.02;;;11.40;99.90;;;;;;5040637;28;20239;-80
2022/10/31 02:46:20;;;;;;;31.00;22.52;;;11.50;99.90;;;;;;5037185;28;20229;-80
2022/10/31 02:49:14;;;;;;;31.88;23.23;;;11.70;99.90;;;;;;5045821;28;20224;-81
2022/10/31 02:52:03;;;;;;;32.90;23.13;;;11.70;99.90;;;;;;5042470;28;20319;-81
2022/10/31 02:54:52;;;;;;;31.42;22.90;;;11.70;99.90;;;;;;5042272;28;20792;-84
2022/10/31 02:57:43;;;;;;;34.05;23.55;;;11.70;99.90;;;;;;5033193;28;20225;-82
2022/10/31 03:00:38;;;;;;;33.05;24.13;;;11.70;99.90;;;;;;5033406;28;20216;-80
2022/10/31 03:03:37;;;;;;;32.63;24.35;;;11.70;99.90;;;;;;5042012;28;20707;-80
2022/10/31 03:06:31;;;;;;;32.30;24.40;;;11.60;99.90;;;;;;5038347;28;20557;-81
2022/10/31 03:09:25;;;;;;;31.50;24.38;;;11.50;99.90;;;;;;5051768;28;20236;-81
2022/10/31 03:12:25;;;;;;;38.35;25.60;;;11.50;99.90;;;;;;5048962;28;20371;-83
2022/10/31 03:15:22;;;;;;;36.10;25.63;;;11.50;99.90;;;;;;5019607;28;20565;-83
2022/10/31 03:18:14;;;;;;;36.95;24.30;;;11.50;99.90;;;;;;5039984;28;20220;-79
2022/10/31 03:21:09;;;;;;;33.28;25.52;;;11.50;99.90;;;;;;5032489;28;20220;-80
2022/10/31 03:24:00;;;;;;;34.75;24.38;;;11.50;99.90;;;;;;5050467;28;20901;-79
2022/10/31 03:26:53;;;;;;;33.38;24.38;;;11.50;99.90;;;;;;5031628;28;20247;-77
2022/10/31 03:29:44;;;;;;;33.80;24.42;;;11.60;99.90;;;;;;5032720;28;20235;-78
2022/10/31 03:32:39;;;;;;;36.17;25.27;;;11.40;99.90;;;;;;5048837;28;20217;-81
2022/10/31 03:35:29;;;;;;;35.53;24.63;;;11.40;99.90;;;;;;5031181;28;20235;-79
2022/10/31 03:38:21;;;;;;;36.63;25.23;;;11.50;99.90;;;;;;5037341;28;20220;-80
2022/10/31 03:41:14;;;;;;;40.30;25.27;;;11.40;99.90;;;;;;5032315;28;20219;-81
2022/10/31 03:44:11;;;;;;;33.83;23.92;;;11.50;99.90;;;;;;5043300;28;20300;-80
2022/10/31 03:47:02;;;;;;;33.72;23.33;;;11.50;99.90;;;;;;5031696;28;20247;-80
2022/10/31 03:49:51;;;;;;;36.30;24.50;;;11.50;99.90;;;;;;5039479;28;20311;-80
2022/10/31 03:52:46;;;;;;;33.15;23.73;;;11.50;99.90;;;;;;5058005;28;20232;-78
2022/10/31 03:55:42;;;;;;;33.05;23.95;;;11.40;99.90;;;;;;5030098;28;20217;-81
2022/10/31 03:58:39;;;;;;;31.52;23.30;;;11.50;99.90;;;;;;5060184;28;20232;-80
2022/10/31 04:01:32;;;;;;;37.67;23.15;;;11.40;99.90;;;;;;5029376;28;20221;-80
2022/10/31 04:04:23;;;;;;;33.33;24.17;;;11.20;99.90;;;;;;5059227;28;20220;-82
2022/10/31 04:07:13;;;;;;;28.88;22.98;;;11.20;99.90;;;;;;5060784;28;20221;-80
2022/10/31 04:10:05;;;;;;;30.90;23.38;;;11.30;99.90;;;;;;5045284;28;20293;-80
2022/10/31 04:13:01;;;;;;;32.63;23.70;;;11.30;99.90;;;;;;5037107;28;20248;-80
2022/10/31 04:15:57;;;;;;;30.38;23.60;;;11.40;99.90;;;;;;5035337;28;20240;-80
2022/10/31 04:18:46;;;;;;;34.05;24.38;;;11.40;99.90;;;;;;5061680;28;20739;-80
2022/10/31 04:21:37;;;;;;;32.17;23.85;;;11.40;99.90;;;;;;5032335;28;20217;-81
2022/10/31 04:24:25;;;;;;;35.88;23.63;;;11.30;99.90;;;;;;5030478;28;20644;-81
2022/10/31 04:27:14;;;;;;;33.47;23.38;;;11.40;99.90;;;;;;5061660;28;20229;-81
2022/10/31 04:30:06;;;;;;;40.38;25.08;;;11.40;99.90;;;;;;5059505;28;20224;-82
2022/10/31 04:32:58;;;;;;;33.47;24.50;;;11.30;99.90;;;;;;5057452;28;20221;-82
2022/10/31 04:35:47;;;;;;;33.60;23.75;;;11.30;99.90;;;;;;5034611;28;20219;-80
2022/10/31 04:38:36;;;;;;;32.78;24.13;;;11.30;99.90;;;;;;5032597;28;20212;-80
2022/10/31 04:41:32;;;;;;;32.90;24.33;;;11.30;99.90;;;;;;5060152;28;20237;-79
2022/10/31 04:44:23;;;;;;;33.17;24.05;;;11.30;99.90;;;;;;5041163;28;20232;-79
2022/10/31 04:47:15;;;;;;;31.73;24.33;;;11.30;99.90;;;;;;5034306;28;20697;-80
2022/10/31 04:50:05;;;;;;;33.65;24.65;;;11.30;99.90;;;;;;5026836;28;20608;-82
2022/10/31 04:52:57;;;;;;;34.15;24.08;;;11.30;99.90;;;;;;5058191;28;20233;-82
2022/10/31 04:55:49;;;;;;;32.17;24.88;;;11.30;99.90;;;;;;5060758;28;20324;-79
2022/10/31 04:58:41;;;;;;;34.42;24.90;;;11.20;99.90;;;;;;5030191;28;20728;-79
2022/10/31 05:01:31;;;;;;;33.10;24.40;;;11.20;99.90;;;;;;5028308;28;20219;-78
2022/10/31 05:04:22;;;;;;;36.22;24.35;;;11.30;99.90;;;;;;5032416;28;20225;-79
2022/10/31 05:07:11;;;;;;;33.42;23.55;;;11.30;99.90;;;;;;5028440;28;20308;-80
2022/10/31 05:10:00;;;;;;;32.92;23.33;;;11.30;99.90;;;;;;5027752;28;20229;-81
2022/10/31 05:12:52;;;;;;;34.45;25.27;;;11.20;99.90;;;;;;5038659;28;20213;-80
2022/10/31 05:16:04;;;;;;;35.15;24.08;;;11.20;99.90;;;;;;5039136;28;20468;-81
2022/10/31 05:19:12;;;;;;;34.35;24.88;;;11.30;99.90;;;;;;5044423;28;20303;-82
2022/10/31 05:22:22;;;;;;;34.17;23.88;;;11.20;99.90;;;;;;5043626;28;20270;-81
2022/10/31 05:25:11;;;;;;;33.72;24.40;;;11.10;99.90;;;;;;5026596;28;20228;-80
2022/10/31 05:28:00;;;;;;;29.70;23.13;;;11.20;99.90;;;;;;5029610;28;20604;-80
2022/10/31 05:30:50;;;;;;;33.85;25.05;;;11.10;99.90;;;;;;5044372;28;20278;-81
2022/10/31 05:33:38;;;;;;;32.45;24.25;;;11.10;99.90;;;;;;5056822;28;20223;-82
2022/10/31 05:36:46;;;;;;;33.25;24.58;;;11.10;99.90;;;;;;5046358;28;20239;-81
2022/10/31 05:39:41;;;;;;;33.95;24.20;;;11.20;99.90;;;;;;5042797;28;20251;-84
2022/10/31 05:42:35;;;;;;;29.73;23.27;;;11.10;99.90;;;;;;5030603;28;20265;-82
2022/10/31 05:45:25;;;;;;;32.92;23.73;;;11.10;99.90;;;;;;5030918;28;20224;-84
2022/10/31 05:48:18;;;;;;;31.17;24.73;;;11.00;99.90;;;;;;5041203;28;20305;-81
2022/10/31 05:51:26;;;;;;;34.22;24.92;;;11.10;99.90;;;;;;5046303;28;20307;-82
2022/10/31 05:54:15;;;;;;;36.10;25.38;;;11.00;99.90;;;;;;5036858;28;20244;-83
2022/10/31 05:57:08;;;;;;;33.53;24.80;;;11.00;99.90;;;;;;5028060;28;20220;-82
2022/10/31 05:59:57;;;;;;;33.72;24.63;;;10.90;99.90;;;;;;5031970;28;20355;-82
2022/10/31 06:02:46;;;;;;;36.53;26.73;;;10.70;99.90;;;;;;5030497;28;20695;-80
2022/10/31 06:05:46;;;;;;;39.45;28.40;;;10.40;99.90;;;;;;5030373;28;20317;-82
2022/10/31 06:08:44;;;;;;;38.15;29.60;;;10.30;99.90;;;;;;5037334;28;20275;-84
2022/10/31 06:11:36;;;;;;;39.17;29.45;;;10.00;99.90;;;;;;5029338;28;20225;-85
2022/10/31 06:14:26;;;;;;;40.10;29.33;;;10.20;99.90;;;;;;5045197;28;20221;-84
2022/10/31 06:17:16;;;;;;;44.03;30.45;;;10.20;99.90;;;;;;5044713;28;20247;-82
2022/10/31 06:20:28;;;;;;;44.53;31.30;;;10.10;99.90;;;;;;5058130;28;20347;-80
2022/10/31 06:23:22;;;;;;;43.53;31.73;;;10.00;99.90;;;;;;5026655;28;20222;-82
2022/10/31 06:26:16;;;;;;;44.80;31.92;;;10.10;99.90;;;;;;5038351;28;20228;-83
2022/10/31 06:29:05;;;;;;;51.13;33.88;;;10.10;99.90;;;;;;5053472;28;20391;-84
2022/10/31 06:32:16;;;;;;;49.47;32.92;;;10.10;99.90;;;;;;5038333;28;20233;-89
2022/10/31 06:35:07;;;;;;;49.13;32.75;;;10.00;99.90;;;;;;5046298;28;20220;-90
2022/10/31 06:37:56;;;;;;;47.70;32.60;;;9.90;99.90;;;;;;5057142;28;20237;-78
2022/10/31 06:41:03;;;;;;;50.08;33.80;;;9.90;99.90;;;;;;5039268;28;20225;-83
2022/10/31 06:44:08;;;;;;;50.22;32.85;;;9.90;99.90;;;;;;5043490;28;20232;-85
2022/10/31 06:47:29;;;;;;;52.88;32.58;;;9.90;99.90;;;;;;5018153;28;20220;-84
2022/10/31 06:50:17;;;;;;;50.20;33.10;;;10.00;99.90;;;;;;5040967;28;20224;-82
2022/10/31 06:53:09;;;;;;;46.58;30.38;;;10.10;99.90;;;;;;5032773;28;20220;-89
2022/10/31 06:55:58;;;;;;;49.75;31.15;;;10.10;99.90;;;;;;5030228;28;20224;-82
2022/10/31 06:58:47;;;;;;;48.95;28.35;;;10.10;99.90;;;;;;5024532;28;20315;-82
2022/10/31 07:01:38;;;;;;;47.78;28.25;;;10.20;99.90;;;;;;5040453;28;20227;-84
2022/10/31 07:04:29;;;;;;;56.50;35.13;;;10.20;99.90;;;;;;5035551;28;20649;-79
2022/10/31 07:07:20;;;;;;;46.03;27.83;;;10.30;99.90;;;;;;5029913;28;20213;-81
2022/10/31 07:10:11;;;;;;;43.30;26.67;;;10.40;99.90;;;;;;5058910;28;20279;-79
2022/10/31 07:13:25;;;;;;;36.35;23.95;;;10.50;99.90;;;;;;5037259;28;20328;-85
2022/10/31 07:16:21;;;;;;;36.72;24.67;;;10.50;99.90;;;;;;5031534;28;20232;-79
2022/10/31 07:19:10;;;;;;;36.55;23.08;;;10.60;99.90;;;;;;5028510;28;20232;-84
2022/10/31 07:22:01;;;;;;;36.33;24.10;;;10.50;99.90;;;;;;5034978;28;20586;-83
2022/10/31 07:24:50;;;;;;;38.25;25.05;;;10.50;99.90;;;;;;5040143;28;20712;-83
2022/10/31 07:27:57;;;;;;;32.58;21.92;;;10.60;99.90;;;;;;5039270;28;20262;-85
2022/10/31 07:30:51;;;;;;;32.40;22.40;;;10.80;99.90;;;;;;5064500;28;20747;-87
2022/10/31 07:33:41;;;;;;;32.20;21.75;;;10.80;99.90;;;;;;5062387;28;20659;-84
2022/10/31 07:36:48;;;;;;;37.03;24.00;;;10.80;99.90;;;;;;5040117;28;20220;-85
2022/10/31 07:39:39;;;;;;;37.95;24.35;;;10.60;99.90;;;;;;5029835;28;20308;-83
2022/10/31 07:42:28;;;;;;;47.58;27.27;;;10.60;99.90;;;;;;5028485;28;20217;-79
2022/10/31 07:45:19;;;;;;;42.53;27.77;;;10.50;99.90;;;;;;5028405;28;20225;-85
2022/10/31 07:48:45;;;;;;;50.90;28.05;;;10.60;99.90;;;;;;5046972;28;20702;-84
2022/10/31 07:51:57;;;;;;;48.63;29.55;;;10.70;99.90;;;;;;5021491;28;20762;-82
2022/10/31 07:55:07;;;;;;;48.25;28.20;;;10.60;99.90;;;;;;5040506;28;20220;-83
2022/10/31 07:57:58;;;;;;;49.20;29.23;;;10.80;99.90;;;;;;5045958;28;20222;-81
2022/10/31 08:00:49;;;;;;;40.60;27.25;;;11.00;99.90;;;;;;5061542;28;20212;-82
2022/10/31 08:03:49;;;;;;;52.22;32.38;;;11.10;99.90;;;;;;5063609;28;20212;-83
2022/10/31 08:06:56;;;;;;;45.22;30.00;;;11.00;99.90;;;;;;5041823;28;20225;-81
2022/10/31 08:09:51;;;;;;;44.28;29.08;;;11.20;99.90;;;;;;5039742;28;20640;-79
2022/10/31 08:12:44;;;;;;;42.45;26.98;;;11.10;99.90;;;;;;5028615;28;20216;-82
2022/10/31 08:15:37;;;;;;;39.63;26.13;;;11.00;99.90;;;;;;5042843;28;20240;-82
2022/10/31 08:18:26;;;;;;;39.45;26.58;;;11.30;99.90;;;;;;5042126;28;20220;-84
2022/10/31 08:21:15;;;;;;;42.72;27.17;;;11.40;99.90;;;;;;5030204;28;20325;-84
2022/10/31 08:24:06;;;;;;;39.47;26.48;;;11.40;99.90;;;;;;5046156;28;20243;-82
2022/10/31 08:26:55;;;;;;;40.83;26.80;;;11.40;99.90;;;;;;5024772;28;20336;-83
2022/10/31 08:29:45;;;;;;;42.22;27.60;;;11.50;99.90;;;;;;5054566;28;20240;-81
2022/10/31 08:32:34;;;;;;;42.65;28.15;;;11.60;99.90;;;;;;5038220;28;20365;-79
2022/10/31 08:35:52;;;;;;;40.35;26.75;;;11.40;99.90;;;;;;5010902;28;20225;-80
2022/10/31 08:39:09;;;;;;;36.83;25.00;;;11.40;99.90;;;;;;5039292;28;20532;-80
2022/10/31 08:42:00;;;;;;;35.65;24.33;;;11.40;99.90;;;;;;5020930;28;20224;-80
2022/10/31 08:44:50;;;;;;;33.33;23.55;;;11.40;99.90;;;;;;5039771;28;20593;-81
2022/10/31 08:47:42;;;;;;;30.88;22.73;;;11.50;99.90;;;;;;5061651;28;20232;-81
2022/10/31 08:50:33;;;;;;;37.63;26.10;;;11.40;99.90;;;;;;5020058;28;20233;-80
2022/10/31 08:53:22;;;;;;;36.78;24.98;;;11.40;99.90;;;;;;5033902;28;20232;-82
2022/10/31 08:56:27;;;;;;;37.40;24.90;;;11.60;99.90;;;;;;5027811;28;20248;-81
2022/10/31 08:59:16;;;;;;;37.25;24.58;;;11.70;99.90;;;;;;5029282;28;20332;-82
2022/10/31 09:02:25;;;;;;;36.10;24.27;;;11.60;99.90;;;;;;5041039;28;20234;-81
2022/10/31 09:05:19;;;;;;;37.40;24.38;;;11.70;99.90;;;;;;5027302;28;20930;-81
2022/10/31 09:08:09;;;;;;;32.83;22.75;;;11.80;99.90;;;;;;5039117;28;20221;-81
2022/10/31 09:11:06;;;;;;;31.00;23.08;;;11.80;99.90;;;;;;5026915;28;20243;-82
2022/10/31 09:14:13;;;;;;;34.00;23.75;;;11.90;99.90;;;;;;5043656;28;20762;-79
2022/10/31 09:17:32;;;;;;;31.88;22.35;;;11.90;99.90;;;;;;5037848;28;20697;-85
2022/10/31 09:20:44;;;;;;;33.92;22.75;;;12.00;99.90;;;;;;5024321;28;20239;-81
2022/10/31 09:23:33;;;;;;;32.08;23.13;;;12.00;99.90;;;;;;5053026;28;20213;-81
2022/10/31 09:26:22;;;;;;;34.15;23.45;;;12.00;99.90;;;;;;5024690;28;20232;-80
2022/10/31 09:29:19;;;;;;;30.52;21.92;;;11.90;99.90;;;;;;5027437;28;20287;-80
2022/10/31 09:32:14;;;;;;;31.33;23.10;;;12.00;99.90;;;;;;5036666;28;20986;-80
2022/10/31 09:35:09;;;;;;;29.08;23.05;;;12.00;99.90;;;;;;5033895;28;20588;-81
2022/10/31 09:37:58;;;;;;;28.75;22.23;;;12.20;99.90;;;;;;5046112;28;20224;-80
2022/10/31 09:40:55;;;;;;;32.28;22.63;;;12.10;99.90;;;;;;5056671;28;20227;-80
2022/10/31 09:43:51;;;;;;;33.83;23.30;;;12.20;99.90;;;;;;5024163;28;20953;-81
2022/10/31 09:46:51;;;;;;;27.30;21.67;;;12.20;99.90;;;;;;5036399;28;20213;-80
2022/10/31 09:49:57;;;;;;;30.38;22.73;;;12.20;99.90;;;;;;5041698;28;20565;-80
2022/10/31 09:52:57;;;;;;;35.38;26.40;;;12.30;99.90;;;;;;5041019;28;20221;-81
2022/10/31 09:55:49;;;;;;;34.65;26.08;;;12.20;99.90;;;;;;5025218;28;20213;-80
2022/10/31 09:58:44;;;;;;;35.17;25.90;;;12.40;99.90;;;;;;5026845;28;20716;-80
2022/10/31 10:01:41;;;;;;;38.42;27.52;;;12.50;99.90;;;;;;5057297;28;20360;-80
2022/10/31 10:04:39;;;;;;;34.83;27.13;;;12.50;99.90;;;;;;5054946;28;20583;-80
2022/10/31 10:07:50;;;;;;;40.28;28.90;;;12.50;99.90;;;;;;5034769;28;20243;-80
2022/10/31 10:11:08;;;;;;;43.08;31.38;;;12.50;99.90;;;;;;5043824;28;20251;-77
2022/10/31 10:14:31;;;;;;;42.65;31.92;;;12.60;99.90;;;;;;5041844;28;20235;-80
2022/10/31 10:17:32;;;;;;;41.97;30.40;;;12.70;99.90;;;;;;5038512;28;20228;-79
2022/10/31 10:20:31;;;;;;;43.65;31.73;;;12.80;99.90;;;;;;5032638;28;20239;-80
2022/10/31 10:23:36;;;;;;;46.30;34.15;;;12.90;99.90;;;;;;5043318;28;20251;-79
2022/10/31 10:26:31;;;;;;;48.45;33.92;;;12.90;99.90;;;;;;5034130;28;20220;-82
2022/10/31 10:29:33;;;;;;;43.95;33.92;;;12.90;99.90;;;;;;5023754;28;20711;-81
2022/10/31 10:32:28;;;;;;;43.83;32.65;;;13.00;99.90;;;;;;5041045;28;20851;-81
2022/10/31 10:35:24;;;;;;;43.25;31.00;;;13.10;99.90;;;;;;5040780;28;20229;-81
2022/10/31 10:38:21;;;;;;;42.00;32.00;;;13.10;99.90;;;;;;5045859;28;20242;-82
2022/10/31 10:41:17;;;;;;;42.40;29.83;;;13.20;99.90;;;;;;5036216;28;20250;-81
2022/10/31 10:44:09;;;;;;;37.17;28.48;;;13.30;99.90;;;;;;5049129;28;21000;-81
2022/10/31 10:50:13;;;;;;;37.88;27.35;;;13.40;99.90;;;;;;5030914;28;20220;-82
2022/10/31 10:53:20;;;;;;;34.78;25.40;;;13.40;99.90;;;;;;5044740;28;20232;-81
2022/10/31 10:56:18;;;;;;;33.97;25.30;;;13.50;99.90;;;;;;5038573;28;20224;-81
2022/10/31 10:59:11;;;;;;;30.65;24.27;;;13.50;99.90;;;;;;5050412;28;20217;-83
2022/10/31 11:02:00;;;;;;;35.10;23.48;;;13.60;99.90;;;;;;5052851;28;20228;-81
2022/10/31 11:04:52;;;;;;;30.52;22.70;;;13.70;99.90;;;;;;5031193;28;20213;-83
2022/10/31 11:07:41;;;;;;;33.40;22.70;;;13.80;99.90;;;;;;5035957;28;20228;-84
2022/10/31 11:10:30;;;;;;;31.90;22.17;;;13.80;99.90;;;;;;5036310;28;20224;-83
2022/10/31 11:13:24;;;;;;;34.22;22.52;;;13.80;99.90;;;;;;5052975;28;20217;-83
2022/10/31 11:16:15;;;;;;;30.25;20.92;;;13.90;99.90;;;;;;5053425;28;20232;-85
2022/10/31 11:19:15;;;;;;;32.15;20.90;;;14.00;99.90;;;;;;5065722;28;20208;-84
2022/10/31 11:22:08;;;;;;;26.58;20.83;;;14.10;99.90;;;;;;5028979;28;20209;-83
2022/10/31 11:24:57;;;;;;;27.05;19.88;;;14.20;99.90;;;;;;5046506;28;20231;-83
2022/10/31 11:27:46;;;;;;;26.98;19.73;;;14.20;99.90;;;;;;5043964;28;20213;-84
2022/10/31 11:30:49;;;;;;;26.88;19.67;;;14.30;99.90;;;;;;5059789;28;20212;-84
2022/10/31 11:33:41;;;;;;;26.35;19.67;;;14.30;99.90;;;;;;5047670;28;20236;-83
2022/10/31 11:36:33;;;;;;;24.42;19.67;;;14.40;99.90;;;;;;5045866;28;20240;-84
2022/10/31 11:39:24;;;;;;;27.20;19.08;;;14.40;99.90;;;;;;5042609;28;20224;-84
2022/10/31 11:42:14;;;;;;;27.10;19.90;;;14.40;99.90;;;;;;5037779;28;20220;-84
2022/10/31 11:45:07;;;;;;;28.27;19.48;;;14.50;99.90;;;;;;5043560;28;20235;-83
2022/10/31 11:48:00;;;;;;;23.20;18.52;;;14.50;99.90;;;;;;5045289;28;20224;-81
2022/10/31 11:50:52;;;;;;;26.98;19.65;;;14.50;99.90;;;;;;5051923;28;20612;-80
2022/10/31 11:53:53;;;;;;;28.17;19.83;;;14.50;99.90;;;;;;5035634;28;20235;-81
2022/10/31 11:56:47;;;;;;;29.10;20.73;;;14.50;99.90;;;;;;5049776;28;20571;-83
2022/10/31 11:59:39;;;;;;;26.15;19.52;;;14.50;99.90;;;;;;5041754;28;20228;-84
2022/10/31 12:02:28;;;;;;;29.10;20.30;;;14.50;99.90;;;;;;5046538;28;20621;-84
2022/10/31 12:05:25;;;;;;;32.55;21.40;;;14.70;99.90;;;;;;5029759;28;20232;-84
2022/10/31 12:08:14;;;;;;;29.88;20.63;;;14.70;99.90;;;;;;5051988;28;20220;-82
2022/10/31 12:11:11;;;;;;;28.27;20.45;;;14.70;99.90;;;;;;5053139;28;20728;-83
2022/10/31 12:14:09;;;;;;;32.65;22.73;;;14.70;99.90;;;;;;5039377;28;20240;-81
2022/10/31 12:17:03;;;;;;;32.72;21.27;;;14.80;99.90;;;;;;5041996;28;20232;-85
2022/10/31 12:20:03;;;;;;;33.30;21.98;;;14.80;99.90;;;;;;5052405;28;20227;-84
2022/10/31 12:23:03;;;;;;;33.17;22.15;;;14.80;99.90;;;;;;5045333;28;20229;-83
2022/10/31 12:25:57;;;;;;;31.60;21.88;;;14.90;99.90;;;;;;5044115;28;20401;-84
2022/10/31 12:29:03;;;;;;;31.75;22.33;;;14.90;99.90;;;;;;5033921;28;20229;-85
2022/10/31 12:32:03;;;;;;;36.17;23.27;;;15.00;99.90;;;;;;5039900;28;20901;-81
2022/10/31 12:35:16;;;;;;;32.13;21.98;;;15.00;99.90;;;;;;5027623;28;20213;-81
2022/10/31 12:38:29;;;;;;;30.83;21.17;;;15.00;99.90;;;;;;5051334;28;20220;-81
2022/10/31 12:41:29;;;;;;;35.78;24.45;;;15.00;99.90;;;;;;5041723;28;20731;-81
2022/10/31 12:44:46;;;;;;;39.85;26.00;;;15.00;99.90;;;;;;5035944;28;20244;-81
2022/10/31 12:47:55;;;;;;;40.47;25.98;;;15.00;99.90;;;;;;5046189;28;20572;-81
2022/10/31 12:50:57;;;;;;;39.25;26.65;;;14.90;99.90;;;;;;5047713;28;20308;-81
2022/10/31 12:54:03;;;;;;;35.83;26.20;;;14.90;99.90;;;;;;5049857;28;20617;-81
2022/10/31 12:57:00;;;;;;;41.42;26.70;;;14.90;99.90;;;;;;5045328;28;20228;-81
2022/10/31 12:59:52;;;;;;;38.35;27.42;;;14.90;99.90;;;;;;5040818;28;20220;-82
2022/10/31 13:02:47;;;;;;;42.60;28.33;;;14.90;99.90;;;;;;5042282;28;20703;-82
2022/10/31 13:05:41;;;;;;;38.13;27.88;;;14.90;99.90;;;;;;5029736;28;20714;-82
2022/10/31 13:08:36;;;;;;;42.88;28.60;;;14.90;99.90;;;;;;5044492;28;20220;-83
2022/10/31 13:11:28;;;;;;;41.75;29.38;;;14.90;99.90;;;;;;5036886;28;21160;-80
2022/10/31 13:14:25;;;;;;;41.50;29.25;;;14.90;99.90;;;;;;5046861;28;20228;-82
2022/10/31 13:17:22;;;;;;;41.25;28.40;;;14.90;99.90;;;;;;5039973;28;20217;-82
2022/10/31 13:20:22;;;;;;;42.88;28.67;;;14.90;99.90;;;;;;5036719;28;20228;-80
2022/10/31 13:23:17;;;;;;;42.17;29.25;;;14.90;99.90;;;;;;5030414;28;20238;-78
2022/10/31 13:26:38;;;;;;;41.80;28.20;;;14.80;99.90;;;;;;5037896;28;20213;-79
2022/10/31 13:29:33;;;;;;;42.28;29.42;;;14.80;99.90;;;;;;5033064;28;20870;-82
2022/10/31 13:32:21;;;;;;;42.17;29.38;;;14.80;99.90;;;;;;5055911;28;21996;-81
2022/10/31 13:35:17;;;;;;;39.97;29.17;;;14.70;99.90;;;;;;5036728;28;20240;-80
2022/10/31 13:38:23;;;;;;;45.55;30.38;;;14.70;99.90;;;;;;5038906;28;20221;-81
2022/10/31 13:41:22;;;;;;;41.45;29.58;;;14.70;99.90;;;;;;5035831;28;20798;-81
2022/10/31 13:44:16;;;;;;;43.17;29.45;;;14.70;99.90;;;;;;5038278;28;20233;-81
2022/10/31 13:47:21;;;;;;;47.83;29.83;;;14.70;99.90;;;;;;5036911;28;20220;-81
2022/10/31 13:50:21;;;;;;;48.17;31.40;;;14.60;99.90;;;;;;5037997;28;20213;-81
2022/10/31 13:53:13;;;;;;;47.67;31.00;;;14.60;99.90;;;;;;5050899;28;20339;-80
2022/10/31 13:56:23;;;;;;;44.25;29.70;;;14.50;99.90;;;;;;5051097;28;20221;-83
2022/10/31 13:59:25;;;;;;;42.70;30.60;;;14.60;99.90;;;;;;5029960;28;20241;-81
2022/10/31 14:02:17;;;;;;;41.67;30.40;;;14.50;99.90;;;;;;5054058;28;20224;-80
2022/10/31 14:05:20;;;;;;;46.17;31.17;;;14.60;99.90;;;;;;5055152;28;20225;-82
2022/10/31 14:08:22;;;;;;;46.38;31.90;;;14.50;99.90;;;;;;5042403;28;20246;-81
2022/10/31 14:11:27;;;;;;;48.45;31.10;;;14.40;99.90;;;;;;5039684;28;20803;-81
2022/10/31 14:14:34;;;;;;;43.70;30.88;;;14.40;99.90;;;;;;5042556;28;20221;-80
2022/10/31 14:17:32;;;;;;;42.70;30.67;;;14.40;99.90;;;;;;5041495;28;20239;-79
2022/10/31 14:20:34;;;;;;;43.95;32.15;;;14.40;99.90;;;;;;5032567;28;20680;-81
2022/10/31 14:23:35;;;;;;;49.83;31.33;;;14.30;99.90;;;;;;5050185;28;20278;-84
2022/10/31 14:26:51;;;;;;;48.90;32.58;;;14.20;99.90;;;;;;5036659;28;20227;-81
2022/10/31 14:29:41;;;;;;;45.80;31.27;;;14.20;99.90;;;;;;5039628;28;20675;-79
2022/10/31 14:32:38;;;;;;;49.22;32.05;;;14.10;99.90;;;;;;5044074;28;20246;-81
2022/10/31 14:35:35;;;;;;;46.25;32.67;;;14.00;99.90;;;;;;5031373;28;20592;-79
2022/10/31 14:38:37;;;;;;;49.35;31.27;;;14.00;99.90;;;;;;5036629;28;20225;-79
2022/10/31 14:41:57;;;;;;;49.78;31.38;;;13.90;99.90;;;;;;5041948;28;20225;-79
2022/10/31 14:45:02;;;;;;;47.42;30.40;;;13.80;99.90;;;;;;5039519;28;20229;-78
2022/10/31 14:48:04;;;;;;;45.70;29.13;;;13.80;99.90;;;;;;5040543;28;20662;-79
2022/10/31 14:50:57;;;;;;;44.00;28.77;;;13.80;99.90;;;;;;5041086;28;20260;-79
2022/10/31 14:53:50;;;;;;;40.95;27.35;;;13.70;99.90;;;;;;5042579;28;20216;-81
2022/10/31 14:56:52;;;;;;;47.38;27.30;;;13.60;99.90;;;;;;5037733;28;21156;-80